sensor_id;sensor_type;location;lat;lon;timestamp;P1;durP1;ratioP1;P2;durP2;ratioP2
2019;SDS011;1014;51.960;8.542;2023-06-10T00:00:51;26.00;;;24.20;;
2019;SDS011;1014;51.960;8.542;2023-06-10T00:03:18;26.33;;;24.53;;
2019;SDS011;1014;51.960;8.542;2023-06-10T00:05:48;27.10;;;25.30;;
2019;SDS011;1014;51.960;8.542;2023-06-10T00:08:16;27.90;;;26.10;;
2019;SDS011;1014;51.960;8.542;2023-06-10T00:10:44;26.50;;;24.90;;
2019;SDS011;1014;51.960;8.542;2023-06-10T00:13:12;26.77;;;24.97;;
2019;SDS011;1014;51.960;8.542;2023-06-10T00:15:41;25.80;;;24.10;;
2019;SDS011;1014;51.960;8.542;2023-06-10T00:18:08;25.37;;;23.67;;
2019;SDS011;1014;51.960;8.542;2023-06-10T00:20:36;26.20;;;24.40;;
2019;SDS011;1014;51.960;8.542;2023-06-10T00:23:04;25.63;;;24.03;;
2019;SDS011;1014;51.960;8.542;2023-06-10T00:25:33;25.37;;;23.77;;
2019;SDS011;1014;51.960;8.542;2023-06-10T00:28:00;26.13;;;24.53;;
2019;SDS011;1014;51.960;8.542;2023-06-10T00:30:28;27.30;;;25.20;;
2019;SDS011;1014;51.960;8.542;2023-06-10T00:32:55;26.97;;;24.93;;
2019;SDS011;1014;51.960;8.542;2023-06-10T00:35:22;26.87;;;25.07;;
2019;SDS011;1014;51.960;8.542;2023-06-10T00:37:49;25.20;;;23.70;;
2019;SDS011;1014;51.960;8.542;2023-06-10T00:40:16;26.83;;;25.10;;
2019;SDS011;1014;51.960;8.542;2023-06-10T00:42:43;27.93;;;25.83;;
2019;SDS011;1014;51.960;8.542;2023-06-10T00:45:10;26.60;;;24.80;;
2019;SDS011;1014;51.960;8.542;2023-06-10T00:47:39;25.40;;;23.90;;
2019;SDS011;1014;51.960;8.542;2023-06-10T00:50:06;26.73;;;24.80;;
2019;SDS011;1014;51.960;8.542;2023-06-10T00:52:33;26.67;;;25.07;;
2019;SDS011;1014;51.960;8.542;2023-06-10T00:55:02;25.27;;;23.57;;
2019;SDS011;1014;51.960;8.542;2023-06-10T00:57:29;26.50;;;24.80;;
2019;SDS011;1014;51.960;8.542;2023-06-10T00:59:57;25.40;;;23.90;;
2019;SDS011;1014;51.960;8.542;2023-06-10T01:02:24;26.47;;;24.77;;
2019;SDS011;1014;51.960;8.542;2023-06-10T01:04:53;25.70;;;24.20;;
2019;SDS011;1014;51.960;8.542;2023-06-10T01:07:21;26.23;;;24.40;;
2019;SDS011;1014;51.960;8.542;2023-06-10T01:09:53;24.70;;;23.10;;
2019;SDS011;1014;51.960;8.542;2023-06-10T01:12:24;26.20;;;24.60;;
2019;SDS011;1014;51.960;8.542;2023-06-10T01:14:53;25.57;;;23.97;;
2019;SDS011;1014;51.960;8.542;2023-06-10T01:17:20;26.50;;;24.90;;
2019;SDS011;1014;51.960;8.542;2023-06-10T01:19:54;26.00;;;24.40;;
2019;SDS011;1014;51.960;8.542;2023-06-10T01:22:23;26.13;;;24.33;;
2019;SDS011;1014;51.960;8.542;2023-06-10T01:24:50;26.77;;;25.00;;
2019;SDS011;1014;51.960;8.542;2023-06-10T01:27:18;26.10;;;24.50;;
2019;SDS011;1014;51.960;8.542;2023-06-10T01:29:49;26.07;;;24.47;;
2019;SDS011;1014;51.960;8.542;2023-06-10T01:32:18;25.33;;;23.73;;
2019;SDS011;1014;51.960;8.542;2023-06-10T01:34:47;25.23;;;23.57;;
2019;SDS011;1014;51.960;8.542;2023-06-10T01:37:16;25.13;;;23.53;;
2019;SDS011;1014;51.960;8.542;2023-06-10T01:39:45;25.30;;;23.80;;
2019;SDS011;1014;51.960;8.542;2023-06-10T01:42:13;25.57;;;24.07;;
2019;SDS011;1014;51.960;8.542;2023-06-10T01:44:40;26.03;;;24.33;;
2019;SDS011;1014;51.960;8.542;2023-06-10T01:47:07;25.00;;;23.50;;
2019;SDS011;1014;51.960;8.542;2023-06-10T01:49:34;24.93;;;23.53;;
2019;SDS011;1014;51.960;8.542;2023-06-10T01:52:01;25.47;;;23.60;;
2019;SDS011;1014;51.960;8.542;2023-06-10T01:54:28;25.80;;;23.87;;
2019;SDS011;1014;51.960;8.542;2023-06-10T01:56:57;25.63;;;24.03;;
2019;SDS011;1014;51.960;8.542;2023-06-10T01:59:24;24.87;;;22.97;;
2019;SDS011;1014;51.960;8.542;2023-06-10T02:01:51;25.30;;;23.80;;
2019;SDS011;1014;51.960;8.542;2023-06-10T02:04:18;24.83;;;23.33;;
2019;SDS011;1014;51.960;8.542;2023-06-10T02:06:45;25.00;;;23.47;;
2019;SDS011;1014;51.960;8.542;2023-06-10T02:09:13;25.37;;;23.73;;
2019;SDS011;1014;51.960;8.542;2023-06-10T02:11:40;25.30;;;23.80;;
2019;SDS011;1014;51.960;8.542;2023-06-10T02:14:08;25.17;;;23.57;;
2019;SDS011;1014;51.960;8.542;2023-06-10T02:16:35;25.70;;;24.00;;
2019;SDS011;1014;51.960;8.542;2023-06-10T02:19:02;26.20;;;24.40;;
2019;SDS011;1014;51.960;8.542;2023-06-10T02:21:31;25.57;;;23.97;;
2019;SDS011;1014;51.960;8.542;2023-06-10T02:23:59;25.83;;;23.83;;
2019;SDS011;1014;51.960;8.542;2023-06-10T02:26:26;25.40;;;23.83;;
2019;SDS011;1014;51.960;8.542;2023-06-10T02:28:53;25.80;;;24.10;;
2019;SDS011;1014;51.960;8.542;2023-06-10T02:31:21;24.73;;;23.23;;
2019;SDS011;1014;51.960;8.542;2023-06-10T02:33:49;26.13;;;24.30;;
2019;SDS011;1014;51.960;8.542;2023-06-10T02:36:16;25.00;;;23.70;;
2019;SDS011;1014;51.960;8.542;2023-06-10T02:38:43;26.10;;;24.23;;
2019;SDS011;1014;51.960;8.542;2023-06-10T02:41:10;24.73;;;23.23;;
2019;SDS011;1014;51.960;8.542;2023-06-10T02:43:37;25.83;;;24.23;;
2019;SDS011;1014;51.960;8.542;2023-06-10T02:46:04;26.20;;;24.50;;
2019;SDS011;1014;51.960;8.542;2023-06-10T02:48:33;25.87;;;24.27;;
2019;SDS011;1014;51.960;8.542;2023-06-10T02:51:07;26.13;;;24.53;;
2019;SDS011;1014;51.960;8.542;2023-06-10T02:53:34;24.77;;;23.17;;
2019;SDS011;1014;51.960;8.542;2023-06-10T02:56:01;26.00;;;24.30;;
2019;SDS011;1014;51.960;8.542;2023-06-10T02:58:28;25.90;;;24.20;;
2019;SDS011;1014;51.960;8.542;2023-06-10T03:00:55;25.87;;;24.27;;
2019;SDS011;1014;51.960;8.542;2023-06-10T03:03:23;25.10;;;23.40;;
2019;SDS011;1014;51.960;8.542;2023-06-10T03:05:52;25.67;;;23.90;;
2019;SDS011;1014;51.960;8.542;2023-06-10T03:08:19;26.10;;;24.30;;
2019;SDS011;1014;51.960;8.542;2023-06-10T03:10:46;26.70;;;24.83;;
2019;SDS011;1014;51.960;8.542;2023-06-10T03:13:13;25.40;;;23.90;;
2019;SDS011;1014;51.960;8.542;2023-06-10T03:15:40;28.20;;;26.10;;
2019;SDS011;1014;51.960;8.542;2023-06-10T03:18:07;25.60;;;24.10;;
2019;SDS011;1014;51.960;8.542;2023-06-10T03:20:34;25.93;;;24.30;;
2019;SDS011;1014;51.960;8.542;2023-06-10T03:23:03;27.10;;;25.30;;
2019;SDS011;1014;51.960;8.542;2023-06-10T03:25:32;26.00;;;24.30;;
2019;SDS011;1014;51.960;8.542;2023-06-10T03:27:59;26.27;;;24.60;;
2019;SDS011;1014;51.960;8.542;2023-06-10T03:30:26;26.80;;;25.17;;
2019;SDS011;1014;51.960;8.542;2023-06-10T03:32:53;25.13;;;23.63;;
2019;SDS011;1014;51.960;8.542;2023-06-10T03:35:20;25.97;;;24.30;;
2019;SDS011;1014;51.960;8.542;2023-06-10T03:37:47;25.77;;;24.17;;
2019;SDS011;1014;51.960;8.542;2023-06-10T03:40:15;26.67;;;24.53;;
2019;SDS011;1014;51.960;8.542;2023-06-10T03:42:42;25.80;;;24.00;;
2019;SDS011;1014;51.960;8.542;2023-06-10T03:45:10;26.40;;;24.43;;
2019;SDS011;1014;51.960;8.542;2023-06-10T03:47:37;25.47;;;23.90;;
2019;SDS011;1014;51.960;8.542;2023-06-10T03:50:06;25.87;;;24.27;;
2019;SDS011;1014;51.960;8.542;2023-06-10T03:52:33;24.80;;;23.30;;
2019;SDS011;1014;51.960;8.542;2023-06-10T03:55:00;27.13;;;24.60;;
2019;SDS011;1014;51.960;8.542;2023-06-10T03:57:29;25.33;;;23.70;;
2019;SDS011;1014;51.960;8.542;2023-06-10T03:59:57;25.90;;;24.30;;
2019;SDS011;1014;51.960;8.542;2023-06-10T04:02:24;26.33;;;24.60;;
2019;SDS011;1014;51.960;8.542;2023-06-10T04:04:51;25.87;;;24.17;;
2019;SDS011;1014;51.960;8.542;2023-06-10T04:07:18;24.13;;;22.63;;
2019;SDS011;1014;51.960;8.542;2023-06-10T04:09:46;25.60;;;23.77;;
2019;SDS011;1014;51.960;8.542;2023-06-10T04:12:13;26.07;;;24.47;;
2019;SDS011;1014;51.960;8.542;2023-06-10T04:14:43;25.33;;;23.73;;
2019;SDS011;1014;51.960;8.542;2023-06-10T04:17:10;25.47;;;23.57;;
2019;SDS011;1014;51.960;8.542;2023-06-10T04:19:37;25.20;;;23.40;;
2019;SDS011;1014;51.960;8.542;2023-06-10T04:22:04;25.80;;;23.90;;
2019;SDS011;1014;51.960;8.542;2023-06-10T04:24:31;26.07;;;24.37;;
2019;SDS011;1014;51.960;8.542;2023-06-10T04:26:58;25.90;;;24.27;;
2019;SDS011;1014;51.960;8.542;2023-06-10T04:29:25;26.13;;;24.40;;
2019;SDS011;1014;51.960;8.542;2023-06-10T04:31:53;25.70;;;24.10;;
2019;SDS011;1014;51.960;8.542;2023-06-10T04:34:20;26.30;;;24.40;;
2019;SDS011;1014;51.960;8.542;2023-06-10T04:36:47;25.03;;;23.43;;
2019;SDS011;1014;51.960;8.542;2023-06-10T04:39:16;25.60;;;23.90;;
2019;SDS011;1014;51.960;8.542;2023-06-10T04:41:43;25.97;;;24.37;;
2019;SDS011;1014;51.960;8.542;2023-06-10T04:44:10;25.50;;;23.90;;
2019;SDS011;1014;51.960;8.542;2023-06-10T04:46:37;25.53;;;23.80;;
2019;SDS011;1014;51.960;8.542;2023-06-10T04:49:05;26.10;;;24.37;;
2019;SDS011;1014;51.960;8.542;2023-06-10T04:51:33;25.07;;;23.43;;
2019;SDS011;1014;51.960;8.542;2023-06-10T04:54:00;26.13;;;24.43;;
2019;SDS011;1014;51.960;8.542;2023-06-10T04:56:28;26.00;;;24.20;;
2019;SDS011;1014;51.960;8.542;2023-06-10T04:58:55;26.17;;;24.23;;
2019;SDS011;1014;51.960;8.542;2023-06-10T05:01:22;25.47;;;23.67;;
2019;SDS011;1014;51.960;8.542;2023-06-10T05:03:49;26.27;;;24.50;;
2019;SDS011;1014;51.960;8.542;2023-06-10T05:06:18;25.50;;;23.90;;
2019;SDS011;1014;51.960;8.542;2023-06-10T05:08:45;24.57;;;22.90;;
2019;SDS011;1014;51.960;8.542;2023-06-10T05:11:12;25.73;;;24.03;;
2019;SDS011;1014;51.960;8.542;2023-06-10T05:13:39;25.47;;;23.77;;
2019;SDS011;1014;51.960;8.542;2023-06-10T05:16:06;24.80;;;23.20;;
2019;SDS011;1014;51.960;8.542;2023-06-10T05:18:34;25.40;;;23.70;;
2019;SDS011;1014;51.960;8.542;2023-06-10T05:21:01;24.37;;;22.67;;
2019;SDS011;1014;51.960;8.542;2023-06-10T05:23:29;25.90;;;24.10;;
2019;SDS011;1014;51.960;8.542;2023-06-10T05:25:56;25.23;;;23.43;;
2019;SDS011;1014;51.960;8.542;2023-06-10T05:28:24;24.93;;;23.30;;
2019;SDS011;1014;51.960;8.542;2023-06-10T05:30:52;25.30;;;23.30;;
2019;SDS011;1014;51.960;8.542;2023-06-10T05:33:19;24.53;;;23.00;;
2019;SDS011;1014;51.960;8.542;2023-06-10T05:35:46;24.60;;;23.00;;
2019;SDS011;1014;51.960;8.542;2023-06-10T05:38:13;24.77;;;23.07;;
2019;SDS011;1014;51.960;8.542;2023-06-10T05:40:41;24.93;;;23.30;;
2019;SDS011;1014;51.960;8.542;2023-06-10T05:43:08;25.10;;;23.47;;
2019;SDS011;1014;51.960;8.542;2023-06-10T05:45:36;25.20;;;23.60;;
2019;SDS011;1014;51.960;8.542;2023-06-10T05:48:05;25.57;;;23.87;;
2019;SDS011;1014;51.960;8.542;2023-06-10T05:50:33;26.00;;;24.20;;
2019;SDS011;1014;51.960;8.542;2023-06-10T05:53:03;25.30;;;23.53;;
2019;SDS011;1014;51.960;8.542;2023-06-10T05:55:31;24.77;;;23.27;;
2019;SDS011;1014;51.960;8.542;2023-06-10T05:58:00;24.00;;;22.20;;
2019;SDS011;1014;51.960;8.542;2023-06-10T06:00:27;24.30;;;22.30;;
2019;SDS011;1014;51.960;8.542;2023-06-10T06:02:54;24.40;;;22.73;;
2019;SDS011;1014;51.960;8.542;2023-06-10T06:05:22;24.63;;;23.13;;
2019;SDS011;1014;51.960;8.542;2023-06-10T06:07:49;24.60;;;22.80;;
2019;SDS011;1014;51.960;8.542;2023-06-10T06:10:16;24.33;;;22.70;;
2019;SDS011;1014;51.960;8.542;2023-06-10T06:12:43;23.93;;;22.43;;
2019;SDS011;1014;51.960;8.542;2023-06-10T06:15:12;24.80;;;23.03;;
2019;SDS011;1014;51.960;8.542;2023-06-10T06:17:39;25.10;;;23.40;;
2019;SDS011;1014;51.960;8.542;2023-06-10T06:20:06;25.90;;;24.10;;
2019;SDS011;1014;51.960;8.542;2023-06-10T06:22:33;25.07;;;23.53;;
2019;SDS011;1014;51.960;8.542;2023-06-10T06:25:00;24.83;;;23.23;;
2019;SDS011;1014;51.960;8.542;2023-06-10T06:27:27;25.60;;;23.93;;
2019;SDS011;1014;51.960;8.542;2023-06-10T06:29:54;25.53;;;23.70;;
2019;SDS011;1014;51.960;8.542;2023-06-10T06:32:24;24.60;;;23.10;;
2019;SDS011;1014;51.960;8.542;2023-06-10T06:34:52;24.40;;;22.80;;
2019;SDS011;1014;51.960;8.542;2023-06-10T06:37:20;25.83;;;23.73;;
2019;SDS011;1014;51.960;8.542;2023-06-10T06:39:48;25.13;;;23.63;;
2019;SDS011;1014;51.960;8.542;2023-06-10T06:42:15;25.50;;;23.73;;
2019;SDS011;1014;51.960;8.542;2023-06-10T06:44:42;25.13;;;23.33;;
2019;SDS011;1014;51.960;8.542;2023-06-10T06:47:09;25.43;;;23.80;;
2019;SDS011;1014;51.960;8.542;2023-06-10T06:49:41;24.53;;;22.93;;
2019;SDS011;1014;51.960;8.542;2023-06-10T06:52:14;25.33;;;23.73;;
2019;SDS011;1014;51.960;8.542;2023-06-10T06:54:41;26.20;;;24.40;;
2019;SDS011;1014;51.960;8.542;2023-06-10T06:57:08;25.20;;;23.60;;
2019;SDS011;1014;51.960;8.542;2023-06-10T06:59:35;24.50;;;23.00;;
2019;SDS011;1014;51.960;8.542;2023-06-10T07:02:02;25.93;;;24.17;;
2019;SDS011;1014;51.960;8.542;2023-06-10T07:04:29;25.23;;;23.57;;
2019;SDS011;1014;51.960;8.542;2023-06-10T07:06:58;25.07;;;23.47;;
2019;SDS011;1014;51.960;8.542;2023-06-10T07:09:25;24.10;;;22.60;;
2019;SDS011;1014;51.960;8.542;2023-06-10T07:11:53;25.97;;;24.17;;
2019;SDS011;1014;51.960;8.542;2023-06-10T07:14:20;25.40;;;23.77;;
2019;SDS011;1014;51.960;8.542;2023-06-10T07:16:47;24.87;;;23.17;;
2019;SDS011;1014;51.960;8.542;2023-06-10T07:19:14;24.80;;;23.00;;
2019;SDS011;1014;51.960;8.542;2023-06-10T07:21:41;25.23;;;23.53;;
2019;SDS011;1014;51.960;8.542;2023-06-10T07:24:10;25.33;;;23.57;;
2019;SDS011;1014;51.960;8.542;2023-06-10T07:26:37;25.40;;;23.60;;
2019;SDS011;1014;51.960;8.542;2023-06-10T07:29:04;24.73;;;22.93;;
2019;SDS011;1014;51.960;8.542;2023-06-10T07:31:31;25.10;;;23.50;;
2019;SDS011;1014;51.960;8.542;2023-06-10T07:33:58;25.13;;;23.43;;
2019;SDS011;1014;51.960;8.542;2023-06-10T07:36:25;25.77;;;24.10;;
2019;SDS011;1014;51.960;8.542;2023-06-10T07:38:54;25.77;;;23.93;;
2019;SDS011;1014;51.960;8.542;2023-06-10T07:41:23;26.57;;;24.70;;
2019;SDS011;1014;51.960;8.542;2023-06-10T07:43:50;26.07;;;24.37;;
2019;SDS011;1014;51.960;8.542;2023-06-10T07:46:19;25.17;;;23.57;;
2019;SDS011;1014;51.960;8.542;2023-06-10T07:48:47;25.43;;;23.70;;
2019;SDS011;1014;51.960;8.542;2023-06-10T07:51:14;26.07;;;24.40;;
2019;SDS011;1014;51.960;8.542;2023-06-10T07:53:41;25.00;;;23.40;;
2019;SDS011;1014;51.960;8.542;2023-06-10T07:56:08;26.30;;;24.50;;
2019;SDS011;1014;51.960;8.542;2023-06-10T07:58:37;25.00;;;23.50;;
2019;SDS011;1014;51.960;8.542;2023-06-10T08:01:04;25.33;;;23.53;;
2019;SDS011;1014;51.960;8.542;2023-06-10T08:03:31;25.53;;;23.93;;
2019;SDS011;1014;51.960;8.542;2023-06-10T08:05:58;26.87;;;24.80;;
2019;SDS011;1014;51.960;8.542;2023-06-10T08:08:26;26.37;;;24.60;;
2019;SDS011;1014;51.960;8.542;2023-06-10T08:10:53;26.20;;;24.40;;
2019;SDS011;1014;51.960;8.542;2023-06-10T08:13:20;26.70;;;24.40;;
2019;SDS011;1014;51.960;8.542;2023-06-10T08:15:49;25.67;;;23.87;;
2019;SDS011;1014;51.960;8.542;2023-06-10T08:18:18;26.50;;;24.20;;
2019;SDS011;1014;51.960;8.542;2023-06-10T08:20:45;26.53;;;24.70;;
2019;SDS011;1014;51.960;8.542;2023-06-10T08:23:13;25.07;;;23.40;;
2019;SDS011;1014;51.960;8.542;2023-06-10T08:25:40;24.67;;;23.07;;
2019;SDS011;1014;51.960;8.542;2023-06-10T08:28:07;25.67;;;23.60;;
2019;SDS011;1014;51.960;8.542;2023-06-10T08:30:34;25.23;;;23.63;;
2019;SDS011;1014;51.960;8.542;2023-06-10T08:33:03;25.60;;;23.90;;
2019;SDS011;1014;51.960;8.542;2023-06-10T08:35:30;26.43;;;24.53;;
2019;SDS011;1014;51.960;8.542;2023-06-10T08:37:57;26.60;;;24.83;;
2019;SDS011;1014;51.960;8.542;2023-06-10T08:40:24;26.80;;;25.10;;
2019;SDS011;1014;51.960;8.542;2023-06-10T08:42:53;25.87;;;24.20;;
2019;SDS011;1014;51.960;8.542;2023-06-10T08:45:20;26.87;;;25.00;;
2019;SDS011;1014;51.960;8.542;2023-06-10T08:47:49;27.43;;;25.60;;
2019;SDS011;1014;51.960;8.542;2023-06-10T08:50:19;26.50;;;24.70;;
2019;SDS011;1014;51.960;8.542;2023-06-10T08:52:46;26.90;;;25.10;;
2019;SDS011;1014;51.960;8.542;2023-06-10T08:55:18;24.93;;;23.43;;
2019;SDS011;1014;51.960;8.542;2023-06-10T08:57:47;26.40;;;24.70;;
2019;SDS011;1014;51.960;8.542;2023-06-10T09:00:15;27.57;;;25.60;;
2019;SDS011;1014;51.960;8.542;2023-06-10T09:02:42;27.40;;;25.30;;
2019;SDS011;1014;51.960;8.542;2023-06-10T09:05:10;26.67;;;24.80;;
2019;SDS011;1014;51.960;8.542;2023-06-10T09:07:38;25.67;;;24.00;;
2019;SDS011;1014;51.960;8.542;2023-06-10T09:10:06;27.00;;;24.90;;
2019;SDS011;1014;51.960;8.542;2023-06-10T09:12:33;27.63;;;25.67;;
2019;SDS011;1014;51.960;8.542;2023-06-10T09:15:00;25.97;;;24.17;;
2019;SDS011;1014;51.960;8.542;2023-06-10T09:17:27;26.50;;;24.60;;
2019;SDS011;1014;51.960;8.542;2023-06-10T09:19:55;25.50;;;23.80;;
2019;SDS011;1014;51.960;8.542;2023-06-10T09:22:22;26.00;;;24.30;;
2019;SDS011;1014;51.960;8.542;2023-06-10T09:24:52;26.60;;;24.60;;
2019;SDS011;1014;51.960;8.542;2023-06-10T09:27:29;26.10;;;24.27;;
2019;SDS011;1014;51.960;8.542;2023-06-10T09:29:57;26.10;;;24.27;;
2019;SDS011;1014;51.960;8.542;2023-06-10T09:32:24;27.27;;;25.47;;
2019;SDS011;1014;51.960;8.542;2023-06-10T09:34:51;26.80;;;24.90;;
2019;SDS011;1014;51.960;8.542;2023-06-10T09:37:23;27.13;;;24.87;;
2019;SDS011;1014;51.960;8.542;2023-06-10T09:40:02;27.10;;;25.20;;
2019;SDS011;1014;51.960;8.542;2023-06-10T09:42:31;27.87;;;25.97;;
2019;SDS011;1014;51.960;8.542;2023-06-10T09:44:59;27.67;;;25.60;;
2019;SDS011;1014;51.960;8.542;2023-06-10T09:47:26;27.50;;;25.70;;
2019;SDS011;1014;51.960;8.542;2023-06-10T09:49:53;27.23;;;25.43;;
2019;SDS011;1014;51.960;8.542;2023-06-10T09:52:23;26.80;;;24.87;;
2019;SDS011;1014;51.960;8.542;2023-06-10T09:54:50;27.67;;;25.70;;
2019;SDS011;1014;51.960;8.542;2023-06-10T09:57:21;28.13;;;26.10;;
2019;SDS011;1014;51.960;8.542;2023-06-10T09:59:49;27.70;;;25.60;;
2019;SDS011;1014;51.960;8.542;2023-06-10T10:02:19;26.40;;;24.70;;
2019;SDS011;1014;51.960;8.542;2023-06-10T10:04:46;26.53;;;24.83;;
2019;SDS011;1014;51.960;8.542;2023-06-10T10:07:13;27.67;;;25.77;;
2019;SDS011;1014;51.960;8.542;2023-06-10T10:09:41;28.37;;;26.20;;
2019;SDS011;1014;51.960;8.542;2023-06-10T10:12:09;27.20;;;25.40;;
2019;SDS011;1014;51.960;8.542;2023-06-10T10:14:38;27.67;;;25.57;;
2019;SDS011;1014;51.960;8.542;2023-06-10T10:17:07;27.73;;;25.83;;
2019;SDS011;1014;51.960;8.542;2023-06-10T10:19:37;27.30;;;25.30;;
2019;SDS011;1014;51.960;8.542;2023-06-10T10:22:07;28.13;;;26.20;;
2019;SDS011;1014;51.960;8.542;2023-06-10T10:24:36;27.60;;;25.63;;
2019;SDS011;1014;51.960;8.542;2023-06-10T10:27:04;27.90;;;26.10;;
2019;SDS011;1014;51.960;8.542;2023-06-10T10:29:36;28.33;;;26.43;;
2019;SDS011;1014;51.960;8.542;2023-06-10T10:32:06;26.80;;;25.10;;
2019;SDS011;1014;51.960;8.542;2023-06-10T10:34:34;26.20;;;24.60;;
2019;SDS011;1014;51.960;8.542;2023-06-10T10:37:02;27.63;;;25.73;;
2019;SDS011;1014;51.960;8.542;2023-06-10T10:39:29;28.50;;;26.27;;
2019;SDS011;1014;51.960;8.542;2023-06-10T10:41:56;27.97;;;26.00;;
2019;SDS011;1014;51.960;8.542;2023-06-10T10:44:24;27.40;;;25.50;;
2019;SDS011;1014;51.960;8.542;2023-06-10T10:46:51;28.10;;;26.30;;
2019;SDS011;1014;51.960;8.542;2023-06-10T10:49:20;27.57;;;25.60;;
2019;SDS011;1014;51.960;8.542;2023-06-10T10:51:55;28.33;;;26.23;;
2019;SDS011;1014;51.960;8.542;2023-06-10T10:54:29;28.77;;;26.47;;
2019;SDS011;1014;51.960;8.542;2023-06-10T10:57:12;28.07;;;26.07;;
2019;SDS011;1014;51.960;8.542;2023-06-10T10:59:43;27.87;;;25.87;;
2019;SDS011;1014;51.960;8.542;2023-06-10T11:02:14;29.07;;;26.97;;
2019;SDS011;1014;51.960;8.542;2023-06-10T11:04:45;27.00;;;25.10;;
2019;SDS011;1014;51.960;8.542;2023-06-10T11:07:12;27.00;;;25.20;;
2019;SDS011;1014;51.960;8.542;2023-06-10T11:12:23;26.83;;;25.00;;
2019;SDS011;1014;51.960;8.542;2023-06-10T11:14:53;26.83;;;25.00;;
2019;SDS011;1014;51.960;8.542;2023-06-10T11:17:21;27.20;;;25.40;;
2019;SDS011;1014;51.960;8.542;2023-06-10T11:19:50;27.20;;;25.50;;
2019;SDS011;1014;51.960;8.542;2023-06-10T11:22:17;27.60;;;25.80;;
2019;SDS011;1014;51.960;8.542;2023-06-10T11:24:48;27.20;;;25.40;;
2019;SDS011;1014;51.960;8.542;2023-06-10T11:27:17;27.90;;;25.93;;
2019;SDS011;1014;51.960;8.542;2023-06-10T11:29:57;26.93;;;25.23;;
2019;SDS011;1014;51.960;8.542;2023-06-10T11:32:25;27.70;;;25.80;;
2019;SDS011;1014;51.960;8.542;2023-06-10T11:34:57;27.77;;;25.97;;
2019;SDS011;1014;51.960;8.542;2023-06-10T11:37:24;27.70;;;25.80;;
2019;SDS011;1014;51.960;8.542;2023-06-10T11:39:51;27.30;;;25.50;;
2019;SDS011;1014;51.960;8.542;2023-06-10T11:42:19;26.17;;;24.37;;
2019;SDS011;1014;51.960;8.542;2023-06-10T11:44:49;27.73;;;26.03;;
2019;SDS011;1014;51.960;8.542;2023-06-10T11:47:17;27.23;;;25.17;;
2019;SDS011;1014;51.960;8.542;2023-06-10T11:49:44;26.90;;;25.17;;
2019;SDS011;1014;51.960;8.542;2023-06-10T11:52:13;27.07;;;25.30;;
2019;SDS011;1014;51.960;8.542;2023-06-10T11:54:40;27.00;;;25.20;;
2019;SDS011;1014;51.960;8.542;2023-06-10T11:57:07;28.37;;;26.47;;
2019;SDS011;1014;51.960;8.542;2023-06-10T11:59:35;28.03;;;26.23;;
2019;SDS011;1014;51.960;8.542;2023-06-10T12:02:02;27.90;;;26.10;;
2019;SDS011;1014;51.960;8.542;2023-06-10T12:04:29;28.57;;;26.57;;
2019;SDS011;1014;51.960;8.542;2023-06-10T12:06:56;27.60;;;25.80;;
2019;SDS011;1014;51.960;8.542;2023-06-10T12:09:25;27.53;;;25.80;;
2019;SDS011;1014;51.960;8.542;2023-06-10T12:11:53;28.00;;;26.30;;
2019;SDS011;1014;51.960;8.542;2023-06-10T12:17:08;27.43;;;25.73;;
2019;SDS011;1014;51.960;8.542;2023-06-10T12:19:37;28.20;;;26.20;;
2019;SDS011;1014;51.960;8.542;2023-06-10T12:22:05;28.40;;;26.53;;
2019;SDS011;1014;51.960;8.542;2023-06-10T12:24:34;26.50;;;24.80;;
2019;SDS011;1014;51.960;8.542;2023-06-10T12:27:10;27.50;;;25.70;;
2019;SDS011;1014;51.960;8.542;2023-06-10T12:29:37;28.43;;;26.33;;
2019;SDS011;1014;51.960;8.542;2023-06-10T12:32:05;27.37;;;25.57;;
2019;SDS011;1014;51.960;8.542;2023-06-10T12:34:33;27.97;;;25.77;;
2019;SDS011;1014;51.960;8.542;2023-06-10T12:37:00;27.53;;;25.60;;
2019;SDS011;1014;51.960;8.542;2023-06-10T12:39:29;28.67;;;26.63;;
2019;SDS011;1014;51.960;8.542;2023-06-10T12:41:57;27.00;;;25.30;;
2019;SDS011;1014;51.960;8.542;2023-06-10T12:44:31;28.27;;;25.90;;
2019;SDS011;1014;51.960;8.542;2023-06-10T12:46:58;27.77;;;25.97;;
2019;SDS011;1014;51.960;8.542;2023-06-10T12:49:25;27.13;;;25.43;;
2019;SDS011;1014;51.960;8.542;2023-06-10T12:51:52;28.03;;;26.13;;
2019;SDS011;1014;51.960;8.542;2023-06-10T12:54:20;28.10;;;26.10;;
2019;SDS011;1014;51.960;8.542;2023-06-10T12:56:48;26.97;;;25.17;;
2019;SDS011;1014;51.960;8.542;2023-06-10T12:59:16;27.90;;;26.00;;
2019;SDS011;1014;51.960;8.542;2023-06-10T13:01:44;28.57;;;26.43;;
2019;SDS011;1014;51.960;8.542;2023-06-10T13:04:11;27.37;;;25.67;;
2019;SDS011;1014;51.960;8.542;2023-06-10T13:06:38;28.80;;;26.93;;
2019;SDS011;1014;51.960;8.542;2023-06-10T13:09:05;26.87;;;24.97;;
2019;SDS011;1014;51.960;8.542;2023-06-10T13:11:33;27.83;;;26.03;;
2019;SDS011;1014;51.960;8.542;2023-06-10T13:14:01;27.57;;;25.77;;
2019;SDS011;1014;51.960;8.542;2023-06-10T13:16:30;27.90;;;26.00;;
2019;SDS011;1014;51.960;8.542;2023-06-10T13:18:57;28.20;;;26.40;;
2019;SDS011;1014;51.960;8.542;2023-06-10T13:21:25;29.17;;;27.07;;
2019;SDS011;1014;51.960;8.542;2023-06-10T13:23:52;28.03;;;26.33;;
2019;SDS011;1014;51.960;8.542;2023-06-10T13:26:20;27.63;;;25.90;;
2019;SDS011;1014;51.960;8.542;2023-06-10T13:28:47;29.90;;;27.80;;
2019;SDS011;1014;51.960;8.542;2023-06-10T13:31:14;29.27;;;27.10;;
2019;SDS011;1014;51.960;8.542;2023-06-10T13:33:42;29.47;;;27.50;;
2019;SDS011;1014;51.960;8.542;2023-06-10T13:36:09;27.80;;;26.10;;
2019;SDS011;1014;51.960;8.542;2023-06-10T13:38:37;28.73;;;26.63;;
2019;SDS011;1014;51.960;8.542;2023-06-10T13:41:04;28.90;;;27.10;;
2019;SDS011;1014;51.960;8.542;2023-06-10T13:43:31;30.43;;;28.33;;
2019;SDS011;1014;51.960;8.542;2023-06-10T13:45:58;29.97;;;27.97;;
2019;SDS011;1014;51.960;8.542;2023-06-10T13:48:25;29.27;;;27.40;;
2019;SDS011;1014;51.960;8.542;2023-06-10T13:50:53;28.67;;;26.67;;
2019;SDS011;1014;51.960;8.542;2023-06-10T13:53:20;29.40;;;27.60;;
2019;SDS011;1014;51.960;8.542;2023-06-10T13:55:47;29.13;;;27.23;;
2019;SDS011;1014;51.960;8.542;2023-06-10T13:58:14;28.87;;;27.07;;
2019;SDS011;1014;51.960;8.542;2023-06-10T14:00:42;29.60;;;27.60;;
2019;SDS011;1014;51.960;8.542;2023-06-10T14:03:09;30.07;;;28.17;;
2019;SDS011;1014;51.960;8.542;2023-06-10T14:05:36;29.97;;;27.93;;
2019;SDS011;1014;51.960;8.542;2023-06-10T14:08:04;30.40;;;28.37;;
2019;SDS011;1014;51.960;8.542;2023-06-10T14:10:31;29.07;;;27.17;;
2019;SDS011;1014;51.960;8.542;2023-06-10T14:12:58;29.40;;;27.60;;
2019;SDS011;1014;51.960;8.542;2023-06-10T14:15:26;30.73;;;28.43;;
2019;SDS011;1014;51.960;8.542;2023-06-10T14:17:53;30.90;;;28.80;;
2019;SDS011;1014;51.960;8.542;2023-06-10T14:20:20;29.03;;;27.13;;
2019;SDS011;1014;51.960;8.542;2023-06-10T14:22:47;30.40;;;28.50;;
2019;SDS011;1014;51.960;8.542;2023-06-10T14:25:15;30.87;;;28.73;;
2019;SDS011;1014;51.960;8.542;2023-06-10T14:27:42;31.57;;;29.37;;
2019;SDS011;1014;51.960;8.542;2023-06-10T14:30:12;30.53;;;28.63;;
2019;SDS011;1014;51.960;8.542;2023-06-10T14:32:39;30.83;;;28.83;;
2019;SDS011;1014;51.960;8.542;2023-06-10T14:35:06;30.90;;;28.90;;
2019;SDS011;1014;51.960;8.542;2023-06-10T14:37:33;31.87;;;29.83;;
2019;SDS011;1014;51.960;8.542;2023-06-10T14:40:00;29.50;;;27.43;;
2019;SDS011;1014;51.960;8.542;2023-06-10T14:42:28;31.43;;;29.23;;
2019;SDS011;1014;51.960;8.542;2023-06-10T14:44:57;30.87;;;28.70;;
2019;SDS011;1014;51.960;8.542;2023-06-10T14:47:24;30.73;;;28.80;;
2019;SDS011;1014;51.960;8.542;2023-06-10T14:49:51;31.60;;;29.40;;
2019;SDS011;1014;51.960;8.542;2023-06-10T14:52:18;31.27;;;29.27;;
2019;SDS011;1014;51.960;8.542;2023-06-10T14:54:45;30.90;;;28.90;;
2019;SDS011;1014;51.960;8.542;2023-06-10T14:57:12;31.47;;;29.37;;